<?xml version="1.0" encoding="UTF-8" standalone="no" ?>
<gpx xmlns="http://www.topografix.com/GPX/1/1" xmlns:xsi="http://www.w3.org/2001/XMLSchema-instance" xsi:schemaLocation="http://www.topografix.com/GPX/1/1 http://www.topografix.com/GPX/1/1/gpx.xsd" version="1.1" creator="VisuGPX - https://www.visugpx.com">
  <metadata>
    <name>Course à pied dans l'après-midi</name>
  </metadata>
  <trk>
    <name><![CDATA[Course à pied dans l'après-midi_1]]></name>
    <trkseg>
      <trkpt lat="48.66961" lon="7.1419">
        <ele>312.2</ele>
        <time>2023-12-06T14:36:33Z</time>
      </trkpt>
      <trkpt lat="48.66966" lon="7.14188">
        <ele>312.6</ele>
        <time>2023-12-06T14:36:39Z</time>
      </trkpt>
      <trkpt lat="48.66967" lon="7.14188">
        <ele>312.7</ele>
        <time>2023-12-06T14:36:42Z</time>
      </trkpt>
      <trkpt lat="48.66971" lon="7.14191">
        <ele>313</ele>
        <time>2023-12-06T14:36:44Z</time>
      </trkpt>
      <trkpt lat="48.6698" lon="7.14189">
        <ele>313.7</ele>
        <time>2023-12-06T14:36:48Z</time>
      </trkpt>
      <trkpt lat="48.66996" lon="7.14174">
        <ele>314.7</ele>
        <time>2023-12-06T14:37:00Z</time>
      </trkpt>
      <trkpt lat="48.67012" lon="7.14156">
        <ele>315.7</ele>
        <time>2023-12-06T14:37:09Z</time>
      </trkpt>
      <trkpt lat="48.67029" lon="7.1414">
        <ele>316.6</ele>
        <time>2023-12-06T14:37:17Z</time>
      </trkpt>
      <trkpt lat="48.67041" lon="7.14129">
        <ele>317.3</ele>
        <time>2023-12-06T14:37:27Z</time>
      </trkpt>
      <trkpt lat="48.67056" lon="7.14111">
        <ele>318.5</ele>
        <time>2023-12-06T14:37:38Z</time>
      </trkpt>
      <trkpt lat="48.6707" lon="7.14093">
        <ele>319.6</ele>
        <time>2023-12-06T14:37:49Z</time>
      </trkpt>
      <trkpt lat="48.67086" lon="7.14075">
        <ele>320.6</ele>
        <time>2023-12-06T14:37:59Z</time>
      </trkpt>
      <trkpt lat="48.67099" lon="7.14048">
        <ele>321.7</ele>
        <time>2023-12-06T14:38:09Z</time>
      </trkpt>
      <trkpt lat="48.67109" lon="7.14024">
        <ele>322.8</ele>
        <time>2023-12-06T14:38:17Z</time>
      </trkpt>
      <trkpt lat="48.67121" lon="7.14">
        <ele>324.1</ele>
        <time>2023-12-06T14:38:26Z</time>
      </trkpt>
      <trkpt lat="48.67118" lon="7.13966">
        <ele>325.7</ele>
        <time>2023-12-06T14:38:40Z</time>
      </trkpt>
      <trkpt lat="48.67116" lon="7.1393">
        <ele>328.3</ele>
        <time>2023-12-06T14:38:53Z</time>
      </trkpt>
      <trkpt lat="48.67117" lon="7.13901">
        <ele>329</ele>
        <time>2023-12-06T14:39:02Z</time>
      </trkpt>
      <trkpt lat="48.67122" lon="7.13874">
        <ele>329.5</ele>
        <time>2023-12-06T14:39:09Z</time>
      </trkpt>
      <trkpt lat="48.67123" lon="7.13871">
        <ele>329.6</ele>
        <time>2023-12-06T14:39:11Z</time>
      </trkpt>
      <trkpt lat="48.67122" lon="7.13882">
        <ele>329.8</ele>
        <time>2023-12-06T14:39:15Z</time>
      </trkpt>
      <trkpt lat="48.67126" lon="7.13895">
        <ele>330</ele>
        <time>2023-12-06T14:39:23Z</time>
      </trkpt>
      <trkpt lat="48.67118" lon="7.13921">
        <ele>329</ele>
        <time>2023-12-06T14:39:32Z</time>
      </trkpt>
      <trkpt lat="48.67109" lon="7.13946">
        <ele>327.8</ele>
        <time>2023-12-06T14:39:42Z</time>
      </trkpt>
      <trkpt lat="48.67097" lon="7.13969">
        <ele>326.3</ele>
        <time>2023-12-06T14:39:53Z</time>
      </trkpt>
      <trkpt lat="48.67095" lon="7.1398">
        <ele>324.6</ele>
        <time>2023-12-06T14:39:58Z</time>
      </trkpt>
      <trkpt lat="48.67093" lon="7.13985">
        <ele>324</ele>
        <time>2023-12-06T14:40:01Z</time>
      </trkpt>
      <trkpt lat="48.67079" lon="7.14004">
        <ele>325.3</ele>
        <time>2023-12-06T14:40:13Z</time>
      </trkpt>
      <trkpt lat="48.6706" lon="7.14014">
        <ele>326.5</ele>
        <time>2023-12-06T14:40:21Z</time>
      </trkpt>
      <trkpt lat="48.6704" lon="7.14013">
        <ele>329.1</ele>
        <time>2023-12-06T14:40:29Z</time>
      </trkpt>
      <trkpt lat="48.67033" lon="7.13986">
        <ele>334.8</ele>
        <time>2023-12-06T14:40:38Z</time>
      </trkpt>
      <trkpt lat="48.67021" lon="7.13965">
        <ele>338.8</ele>
        <time>2023-12-06T14:40:47Z</time>
      </trkpt>
      <trkpt lat="48.6701" lon="7.13942">
        <ele>341.8</ele>
        <time>2023-12-06T14:40:57Z</time>
      </trkpt>
      <trkpt lat="48.67006" lon="7.13916">
        <ele>345.7</ele>
        <time>2023-12-06T14:41:04Z</time>
      </trkpt>
      <trkpt lat="48.67003" lon="7.13888">
        <ele>348.4</ele>
        <time>2023-12-06T14:41:13Z</time>
      </trkpt>
      <trkpt lat="48.6698" lon="7.13876">
        <ele>345.2</ele>
        <time>2023-12-06T14:41:22Z</time>
      </trkpt>
      <trkpt lat="48.66975" lon="7.1385">
        <ele>346.4</ele>
        <time>2023-12-06T14:41:31Z</time>
      </trkpt>
      <trkpt lat="48.66975" lon="7.1385">
        <ele>346.6</ele>
        <time>2023-12-06T14:41:43Z</time>
      </trkpt>
      <trkpt lat="48.66975" lon="7.1385">
        <ele>346.8</ele>
        <time>2023-12-06T14:41:56Z</time>
      </trkpt>
      <trkpt lat="48.66975" lon="7.1385">
        <ele>346.9</ele>
        <time>2023-12-06T14:42:10Z</time>
      </trkpt>
      <trkpt lat="48.66975" lon="7.1385">
        <ele>347.1</ele>
        <time>2023-12-06T14:42:23Z</time>
      </trkpt>
      <trkpt lat="48.66975" lon="7.1385">
        <ele>347.3</ele>
        <time>2023-12-06T14:42:37Z</time>
      </trkpt>
      <trkpt lat="48.66975" lon="7.1385">
        <ele>347.4</ele>
        <time>2023-12-06T14:42:51Z</time>
      </trkpt>
      <trkpt lat="48.66975" lon="7.1385">
        <ele>347.6</ele>
        <time>2023-12-06T14:43:05Z</time>
      </trkpt>
      <trkpt lat="48.66975" lon="7.1385">
        <ele>347.7</ele>
        <time>2023-12-06T14:43:19Z</time>
      </trkpt>
      <trkpt lat="48.66975" lon="7.1385">
        <ele>347.9</ele>
        <time>2023-12-06T14:43:33Z</time>
      </trkpt>
      <trkpt lat="48.66975" lon="7.1385">
        <ele>348.1</ele>
        <time>2023-12-06T14:43:47Z</time>
      </trkpt>
      <trkpt lat="48.66975" lon="7.1385">
        <ele>348.2</ele>
        <time>2023-12-06T14:44:01Z</time>
      </trkpt>
      <trkpt lat="48.66975" lon="7.1385">
        <ele>348.4</ele>
        <time>2023-12-06T14:44:07Z</time>
      </trkpt>
      <trkpt lat="48.66975" lon="7.1385">
        <ele>348.5</ele>
        <time>2023-12-06T14:45:47Z</time>
      </trkpt>
      <trkpt lat="48.66975" lon="7.1385">
        <ele>348.7</ele>
        <time>2023-12-06T14:45:55Z</time>
      </trkpt>
      <trkpt lat="48.66975" lon="7.1385">
        <ele>348.9</ele>
        <time>2023-12-06T14:46:03Z</time>
      </trkpt>
      <trkpt lat="48.66975" lon="7.1385">
        <ele>349</ele>
        <time>2023-12-06T14:46:11Z</time>
      </trkpt>
      <trkpt lat="48.66975" lon="7.1385">
        <ele>349.2</ele>
        <time>2023-12-06T14:46:19Z</time>
      </trkpt>
      <trkpt lat="48.66975" lon="7.1385">
        <ele>349.4</ele>
        <time>2023-12-06T14:46:27Z</time>
      </trkpt>
      <trkpt lat="48.66975" lon="7.1385">
        <ele>349.5</ele>
        <time>2023-12-06T14:46:36Z</time>
      </trkpt>
      <trkpt lat="48.66975" lon="7.1385">
        <ele>349.7</ele>
        <time>2023-12-06T14:46:45Z</time>
      </trkpt>
      <trkpt lat="48.66975" lon="7.1385">
        <ele>349.8</ele>
        <time>2023-12-06T14:46:54Z</time>
      </trkpt>
      <trkpt lat="48.66746" lon="7.13475">
        <ele>372.7</ele>
        <time>2023-12-06T14:46:55Z</time>
      </trkpt>
      <trkpt lat="48.66746" lon="7.13475">
        <ele>372.8</ele>
        <time>2023-12-06T14:47:01Z</time>
      </trkpt>
      <trkpt lat="48.66746" lon="7.13475">
        <ele>373</ele>
        <time>2023-12-06T14:47:02Z</time>
      </trkpt>
      <trkpt lat="48.66746" lon="7.13475">
        <ele>373.1</ele>
        <time>2023-12-06T14:47:04Z</time>
      </trkpt>
      <trkpt lat="48.66746" lon="7.13475">
        <ele>373.3</ele>
        <time>2023-12-06T14:47:08Z</time>
      </trkpt>
      <trkpt lat="48.66746" lon="7.13474">
        <ele>373.5</ele>
        <time>2023-12-06T14:47:12Z</time>
      </trkpt>
      <trkpt lat="48.66746" lon="7.13473">
        <ele>373.6</ele>
        <time>2023-12-06T14:47:13Z</time>
      </trkpt>
      <trkpt lat="48.66745" lon="7.1347">
        <ele>374.1</ele>
        <time>2023-12-06T14:47:18Z</time>
      </trkpt>
      <trkpt lat="48.66745" lon="7.13469">
        <ele>374.2</ele>
        <time>2023-12-06T14:47:19Z</time>
      </trkpt>
      <trkpt lat="48.66729" lon="7.13466">
        <ele>379.1</ele>
        <time>2023-12-06T14:47:24Z</time>
      </trkpt>
      <trkpt lat="48.66711" lon="7.13462">
        <ele>383.8</ele>
        <time>2023-12-06T14:47:30Z</time>
      </trkpt>
      <trkpt lat="48.66704" lon="7.13461">
        <ele>386.1</ele>
        <time>2023-12-06T14:47:31Z</time>
      </trkpt>
      <trkpt lat="48.66684" lon="7.13458">
        <ele>391.3</ele>
        <time>2023-12-06T14:47:37Z</time>
      </trkpt>
      <trkpt lat="48.66683" lon="7.13457">
        <ele>391.4</ele>
        <time>2023-12-06T14:47:38Z</time>
      </trkpt>
      <trkpt lat="48.66686" lon="7.13452">
        <ele>390.9</ele>
        <time>2023-12-06T14:47:41Z</time>
      </trkpt>
      <trkpt lat="48.66701" lon="7.13432">
        <ele>386.9</ele>
        <time>2023-12-06T14:47:49Z</time>
      </trkpt>
      <trkpt lat="48.66714" lon="7.13408">
        <ele>382.8</ele>
        <time>2023-12-06T14:47:54Z</time>
      </trkpt>
      <trkpt lat="48.66724" lon="7.13384">
        <ele>380.9</ele>
        <time>2023-12-06T14:47:59Z</time>
      </trkpt>
      <trkpt lat="48.66732" lon="7.13355">
        <ele>381</ele>
        <time>2023-12-06T14:48:07Z</time>
      </trkpt>
      <trkpt lat="48.66732" lon="7.13355">
        <ele>381.2</ele>
        <time>2023-12-06T14:48:17Z</time>
      </trkpt>
      <trkpt lat="48.66723" lon="7.13314">
        <ele>384.3</ele>
        <time>2023-12-06T14:48:23Z</time>
      </trkpt>
      <trkpt lat="48.66723" lon="7.13314">
        <ele>384.5</ele>
        <time>2023-12-06T14:48:35Z</time>
      </trkpt>
      <trkpt lat="48.66723" lon="7.13314">
        <ele>384.7</ele>
        <time>2023-12-06T14:48:50Z</time>
      </trkpt>
      <trkpt lat="48.66723" lon="7.13314">
        <ele>384.8</ele>
        <time>2023-12-06T14:49:06Z</time>
      </trkpt>
      <trkpt lat="48.66723" lon="7.13314">
        <ele>385</ele>
        <time>2023-12-06T14:49:21Z</time>
      </trkpt>
      <trkpt lat="48.66723" lon="7.13314">
        <ele>385.1</ele>
        <time>2023-12-06T14:49:35Z</time>
      </trkpt>
      <trkpt lat="48.66723" lon="7.13314">
        <ele>385.3</ele>
        <time>2023-12-06T14:49:48Z</time>
      </trkpt>
      <trkpt lat="48.66723" lon="7.13314">
        <ele>385.5</ele>
        <time>2023-12-06T14:50:02Z</time>
      </trkpt>
      <trkpt lat="48.66723" lon="7.13314">
        <ele>385.6</ele>
        <time>2023-12-06T14:50:19Z</time>
      </trkpt>
      <trkpt lat="48.66723" lon="7.13314">
        <ele>385.8</ele>
        <time>2023-12-06T14:50:36Z</time>
      </trkpt>
      <trkpt lat="48.66723" lon="7.13314">
        <ele>386</ele>
        <time>2023-12-06T14:50:53Z</time>
      </trkpt>
      <trkpt lat="48.66723" lon="7.13314">
        <ele>386.1</ele>
        <time>2023-12-06T14:51:09Z</time>
      </trkpt>
      <trkpt lat="48.66723" lon="7.13314">
        <ele>386.3</ele>
        <time>2023-12-06T14:51:22Z</time>
      </trkpt>
      <trkpt lat="48.66723" lon="7.13314">
        <ele>386.4</ele>
        <time>2023-12-06T14:51:34Z</time>
      </trkpt>
      <trkpt lat="48.66723" lon="7.13314">
        <ele>386.6</ele>
        <time>2023-12-06T14:51:47Z</time>
      </trkpt>
      <trkpt lat="48.66723" lon="7.13314">
        <ele>386.8</ele>
        <time>2023-12-06T14:51:58Z</time>
      </trkpt>
      <trkpt lat="48.66723" lon="7.13314">
        <ele>386.9</ele>
        <time>2023-12-06T14:52:09Z</time>
      </trkpt>
      <trkpt lat="48.66723" lon="7.13314">
        <ele>387.1</ele>
        <time>2023-12-06T14:52:20Z</time>
      </trkpt>
      <trkpt lat="48.66723" lon="7.13314">
        <ele>387.3</ele>
        <time>2023-12-06T14:52:32Z</time>
      </trkpt>
      <trkpt lat="48.66723" lon="7.13314">
        <ele>387.4</ele>
        <time>2023-12-06T14:52:44Z</time>
      </trkpt>
      <trkpt lat="48.66723" lon="7.13314">
        <ele>387.6</ele>
        <time>2023-12-06T14:52:56Z</time>
      </trkpt>
      <trkpt lat="48.66723" lon="7.13314">
        <ele>387.7</ele>
        <time>2023-12-06T14:53:08Z</time>
      </trkpt>
      <trkpt lat="48.6666" lon="7.12935">
        <ele>396.2</ele>
        <time>2023-12-06T14:53:12Z</time>
      </trkpt>
      <trkpt lat="48.66686" lon="7.12957">
        <ele>395.6</ele>
        <time>2023-12-06T14:53:20Z</time>
      </trkpt>
      <trkpt lat="48.66702" lon="7.12977">
        <ele>395</ele>
        <time>2023-12-06T14:53:26Z</time>
      </trkpt>
      <trkpt lat="48.66715" lon="7.12999">
        <ele>394.4</ele>
        <time>2023-12-06T14:53:33Z</time>
      </trkpt>
      <trkpt lat="48.66731" lon="7.13014">
        <ele>393.6</ele>
        <time>2023-12-06T14:53:38Z</time>
      </trkpt>
      <trkpt lat="48.6675" lon="7.1303">
        <ele>392.5</ele>
        <time>2023-12-06T14:53:44Z</time>
      </trkpt>
      <trkpt lat="48.66766" lon="7.13043">
        <ele>391.3</ele>
        <time>2023-12-06T14:53:49Z</time>
      </trkpt>
      <trkpt lat="48.66785" lon="7.13055">
        <ele>390</ele>
        <time>2023-12-06T14:53:54Z</time>
      </trkpt>
      <trkpt lat="48.66801" lon="7.13073">
        <ele>388.8</ele>
        <time>2023-12-06T14:54:00Z</time>
      </trkpt>
      <trkpt lat="48.66815" lon="7.13094">
        <ele>387.5</ele>
        <time>2023-12-06T14:54:07Z</time>
      </trkpt>
      <trkpt lat="48.66829" lon="7.13113">
        <ele>386.4</ele>
        <time>2023-12-06T14:54:14Z</time>
      </trkpt>
      <trkpt lat="48.6684" lon="7.13137">
        <ele>385.3</ele>
        <time>2023-12-06T14:54:22Z</time>
      </trkpt>
      <trkpt lat="48.66847" lon="7.13164">
        <ele>384.2</ele>
        <time>2023-12-06T14:54:29Z</time>
      </trkpt>
      <trkpt lat="48.66854" lon="7.13193">
        <ele>383.2</ele>
        <time>2023-12-06T14:54:38Z</time>
      </trkpt>
      <trkpt lat="48.66856" lon="7.13221">
        <ele>382.1</ele>
        <time>2023-12-06T14:54:46Z</time>
      </trkpt>
      <trkpt lat="48.66856" lon="7.13219">
        <ele>382</ele>
        <time>2023-12-06T14:54:49Z</time>
      </trkpt>
      <trkpt lat="48.66847" lon="7.13207">
        <ele>381.4</ele>
        <time>2023-12-06T14:54:55Z</time>
      </trkpt>
      <trkpt lat="48.66833" lon="7.13204">
        <ele>382.6</ele>
        <time>2023-12-06T14:55:10Z</time>
      </trkpt>
      <trkpt lat="48.66839" lon="7.13188">
        <ele>381.3</ele>
        <time>2023-12-06T14:55:15Z</time>
      </trkpt>
      <trkpt lat="48.66857" lon="7.13172">
        <ele>378.7</ele>
        <time>2023-12-06T14:55:20Z</time>
      </trkpt>
      <trkpt lat="48.66875" lon="7.13156">
        <ele>374.9</ele>
        <time>2023-12-06T14:55:25Z</time>
      </trkpt>
      <trkpt lat="48.66893" lon="7.1314">
        <ele>371.3</ele>
        <time>2023-12-06T14:55:31Z</time>
      </trkpt>
      <trkpt lat="48.66909" lon="7.13125">
        <ele>365.9</ele>
        <time>2023-12-06T14:55:37Z</time>
      </trkpt>
      <trkpt lat="48.66928" lon="7.13113">
        <ele>359.5</ele>
        <time>2023-12-06T14:55:42Z</time>
      </trkpt>
      <trkpt lat="48.66941" lon="7.13099">
        <ele>354.9</ele>
        <time>2023-12-06T14:55:50Z</time>
      </trkpt>
      <trkpt lat="48.66939" lon="7.13098">
        <ele>355.1</ele>
        <time>2023-12-06T14:56:05Z</time>
      </trkpt>
      <trkpt lat="48.66955" lon="7.13078">
        <ele>349.5</ele>
        <time>2023-12-06T14:56:12Z</time>
      </trkpt>
      <trkpt lat="48.66974" lon="7.13065">
        <ele>345</ele>
        <time>2023-12-06T14:56:18Z</time>
      </trkpt>
      <trkpt lat="48.66991" lon="7.13054">
        <ele>341.8</ele>
        <time>2023-12-06T14:56:24Z</time>
      </trkpt>
      <trkpt lat="48.67009" lon="7.13045">
        <ele>339.3</ele>
        <time>2023-12-06T14:56:30Z</time>
      </trkpt>
      <trkpt lat="48.67029" lon="7.13036">
        <ele>335.9</ele>
        <time>2023-12-06T14:56:36Z</time>
      </trkpt>
      <trkpt lat="48.67048" lon="7.13025">
        <ele>331.9</ele>
        <time>2023-12-06T14:56:41Z</time>
      </trkpt>
      <trkpt lat="48.67065" lon="7.13013">
        <ele>329.7</ele>
        <time>2023-12-06T14:56:49Z</time>
      </trkpt>
      <trkpt lat="48.67083" lon="7.13">
        <ele>327.6</ele>
        <time>2023-12-06T14:56:57Z</time>
      </trkpt>
      <trkpt lat="48.67103" lon="7.12987">
        <ele>326.3</ele>
        <time>2023-12-06T14:57:04Z</time>
      </trkpt>
      <trkpt lat="48.67117" lon="7.12973">
        <ele>326.7</ele>
        <time>2023-12-06T14:57:10Z</time>
      </trkpt>
      <trkpt lat="48.67079" lon="7.12958">
        <ele>327.9</ele>
        <time>2023-12-06T14:57:15Z</time>
      </trkpt>
      <trkpt lat="48.67081" lon="7.12929">
        <ele>330.4</ele>
        <time>2023-12-06T14:57:26Z</time>
      </trkpt>
      <trkpt lat="48.67087" lon="7.12901">
        <ele>334.2</ele>
        <time>2023-12-06T14:57:37Z</time>
      </trkpt>
      <trkpt lat="48.67085" lon="7.12888">
        <ele>336.9</ele>
        <time>2023-12-06T14:57:46Z</time>
      </trkpt>
      <trkpt lat="48.67075" lon="7.12887">
        <ele>336.3</ele>
        <time>2023-12-06T14:57:49Z</time>
      </trkpt>
      <trkpt lat="48.67071" lon="7.12895">
        <ele>334.8</ele>
        <time>2023-12-06T14:57:53Z</time>
      </trkpt>
      <trkpt lat="48.67064" lon="7.12925">
        <ele>330.7</ele>
        <time>2023-12-06T14:58:00Z</time>
      </trkpt>
      <trkpt lat="48.67059" lon="7.12955">
        <ele>328.9</ele>
        <time>2023-12-06T14:58:09Z</time>
      </trkpt>
      <trkpt lat="48.67065" lon="7.12976">
        <ele>327.7</ele>
        <time>2023-12-06T14:58:22Z</time>
      </trkpt>
      <trkpt lat="48.67077" lon="7.12998">
        <ele>326.5</ele>
        <time>2023-12-06T14:58:34Z</time>
      </trkpt>
      <trkpt lat="48.67092" lon="7.13014">
        <ele>325.3</ele>
        <time>2023-12-06T14:58:44Z</time>
      </trkpt>
      <trkpt lat="48.67108" lon="7.13028">
        <ele>324.1</ele>
        <time>2023-12-06T14:58:53Z</time>
      </trkpt>
      <trkpt lat="48.67125" lon="7.13038">
        <ele>322.9</ele>
        <time>2023-12-06T14:59:02Z</time>
      </trkpt>
      <trkpt lat="48.67142" lon="7.13052">
        <ele>321.7</ele>
        <time>2023-12-06T14:59:11Z</time>
      </trkpt>
      <trkpt lat="48.67158" lon="7.13066">
        <ele>320.5</ele>
        <time>2023-12-06T14:59:19Z</time>
      </trkpt>
      <trkpt lat="48.67175" lon="7.1308">
        <ele>319.2</ele>
        <time>2023-12-06T14:59:27Z</time>
      </trkpt>
      <trkpt lat="48.67191" lon="7.13095">
        <ele>318.1</ele>
        <time>2023-12-06T14:59:34Z</time>
      </trkpt>
      <trkpt lat="48.67207" lon="7.13113">
        <ele>316.8</ele>
        <time>2023-12-06T14:59:43Z</time>
      </trkpt>
      <trkpt lat="48.67223" lon="7.13129">
        <ele>315.5</ele>
        <time>2023-12-06T14:59:50Z</time>
      </trkpt>
      <trkpt lat="48.67239" lon="7.13144">
        <ele>314.3</ele>
        <time>2023-12-06T15:00:00Z</time>
      </trkpt>
      <trkpt lat="48.67258" lon="7.13148">
        <ele>313.1</ele>
        <time>2023-12-06T15:00:10Z</time>
      </trkpt>
      <trkpt lat="48.67276" lon="7.13153">
        <ele>311.9</ele>
        <time>2023-12-06T15:00:21Z</time>
      </trkpt>
      <trkpt lat="48.67293" lon="7.13166">
        <ele>310.7</ele>
        <time>2023-12-06T15:00:33Z</time>
      </trkpt>
      <trkpt lat="48.67309" lon="7.13177">
        <ele>309.5</ele>
        <time>2023-12-06T15:00:44Z</time>
      </trkpt>
      <trkpt lat="48.67316" lon="7.1318">
        <ele>309</ele>
        <time>2023-12-06T15:00:50Z</time>
      </trkpt>
      <trkpt lat="48.67322" lon="7.1318">
        <ele>308.7</ele>
        <time>2023-12-06T15:00:56Z</time>
      </trkpt>
      <trkpt lat="48.67322" lon="7.1318">
        <ele>308.6</ele>
        <time>2023-12-06T15:00:57Z</time>
      </trkpt>
      <trkpt lat="48.67319" lon="7.1318">
        <ele>308.5</ele>
        <time>2023-12-06T15:01:03Z</time>
      </trkpt>
      <trkpt lat="48.67322" lon="7.13186">
        <ele>308.2</ele>
        <time>2023-12-06T15:01:14Z</time>
      </trkpt>
      <trkpt lat="48.67324" lon="7.13189">
        <ele>308.1</ele>
        <time>2023-12-06T15:01:19Z</time>
      </trkpt>
      <trkpt lat="48.67324" lon="7.13188">
        <ele>308.1</ele>
        <time>2023-12-06T15:01:20Z</time>
      </trkpt>
      <trkpt lat="48.67325" lon="7.13185">
        <ele>308.3</ele>
        <time>2023-12-06T15:01:24Z</time>
      </trkpt>
      <trkpt lat="48.67324" lon="7.13184">
        <ele>308.4</ele>
        <time>2023-12-06T15:01:25Z</time>
      </trkpt>
      <trkpt lat="48.67321" lon="7.13183">
        <ele>308.6</ele>
        <time>2023-12-06T15:01:30Z</time>
      </trkpt>
      <trkpt lat="48.67302" lon="7.13169">
        <ele>310</ele>
        <time>2023-12-06T15:01:43Z</time>
      </trkpt>
      <trkpt lat="48.67291" lon="7.13161">
        <ele>310.8</ele>
        <time>2023-12-06T15:01:49Z</time>
      </trkpt>
      <trkpt lat="48.67274" lon="7.13143">
        <ele>312.1</ele>
        <time>2023-12-06T15:01:55Z</time>
      </trkpt>
      <trkpt lat="48.67258" lon="7.13126">
        <ele>313.4</ele>
        <time>2023-12-06T15:02:05Z</time>
      </trkpt>
      <trkpt lat="48.6724" lon="7.13115">
        <ele>314.6</ele>
        <time>2023-12-06T15:02:13Z</time>
      </trkpt>
      <trkpt lat="48.67226" lon="7.13098">
        <ele>315.8</ele>
        <time>2023-12-06T15:02:25Z</time>
      </trkpt>
      <trkpt lat="48.6721" lon="7.13081">
        <ele>317.1</ele>
        <time>2023-12-06T15:02:40Z</time>
      </trkpt>
      <trkpt lat="48.67207" lon="7.13077">
        <ele>317.4</ele>
        <time>2023-12-06T15:02:43Z</time>
      </trkpt>
      <trkpt lat="48.67186" lon="7.1307">
        <ele>318.7</ele>
        <time>2023-12-06T15:02:49Z</time>
      </trkpt>
      <trkpt lat="48.67169" lon="7.13056">
        <ele>320</ele>
        <time>2023-12-06T15:02:55Z</time>
      </trkpt>
      <trkpt lat="48.67149" lon="7.13041">
        <ele>321.4</ele>
        <time>2023-12-06T15:03:03Z</time>
      </trkpt>
      <trkpt lat="48.6713" lon="7.1303">
        <ele>322.8</ele>
        <time>2023-12-06T15:03:09Z</time>
      </trkpt>
      <trkpt lat="48.67111" lon="7.13021">
        <ele>324.1</ele>
        <time>2023-12-06T15:03:14Z</time>
      </trkpt>
      <trkpt lat="48.67093" lon="7.13009">
        <ele>325.3</ele>
        <time>2023-12-06T15:03:22Z</time>
      </trkpt>
      <trkpt lat="48.67089" lon="7.13008">
        <ele>325.6</ele>
        <time>2023-12-06T15:03:26Z</time>
      </trkpt>
      <trkpt lat="48.67065" lon="7.13">
        <ele>327.2</ele>
        <time>2023-12-06T15:08:38Z</time>
      </trkpt>
      <trkpt lat="48.6707" lon="7.13003">
        <ele>326.8</ele>
        <time>2023-12-06T15:08:40Z</time>
      </trkpt>
      <trkpt lat="48.67089" lon="7.13016">
        <ele>325.5</ele>
        <time>2023-12-06T15:08:47Z</time>
      </trkpt>
      <trkpt lat="48.67107" lon="7.13027">
        <ele>324.2</ele>
        <time>2023-12-06T15:08:52Z</time>
      </trkpt>
      <trkpt lat="48.67128" lon="7.13037">
        <ele>322.8</ele>
        <time>2023-12-06T15:08:57Z</time>
      </trkpt>
      <trkpt lat="48.67143" lon="7.13049">
        <ele>321.7</ele>
        <time>2023-12-06T15:09:03Z</time>
      </trkpt>
      <trkpt lat="48.67138" lon="7.13048">
        <ele>321.9</ele>
        <time>2023-12-06T15:09:06Z</time>
      </trkpt>
      <trkpt lat="48.6712" lon="7.13035">
        <ele>323.1</ele>
        <time>2023-12-06T15:09:11Z</time>
      </trkpt>
      <trkpt lat="48.67103" lon="7.1302">
        <ele>324.2</ele>
        <time>2023-12-06T15:09:16Z</time>
      </trkpt>
      <trkpt lat="48.67091" lon="7.13012">
        <ele>324.9</ele>
        <time>2023-12-06T15:09:23Z</time>
      </trkpt>
      <trkpt lat="48.67074" lon="7.12998">
        <ele>326</ele>
        <time>2023-12-06T15:09:34Z</time>
      </trkpt>
      <trkpt lat="48.67059" lon="7.12982">
        <ele>327.1</ele>
        <time>2023-12-06T15:09:44Z</time>
      </trkpt>
      <trkpt lat="48.6704" lon="7.12973">
        <ele>328.2</ele>
        <time>2023-12-06T15:09:53Z</time>
      </trkpt>
      <trkpt lat="48.67022" lon="7.12978">
        <ele>329.3</ele>
        <time>2023-12-06T15:10:02Z</time>
      </trkpt>
      <trkpt lat="48.6701" lon="7.12999">
        <ele>330.4</ele>
        <time>2023-12-06T15:10:17Z</time>
      </trkpt>
      <trkpt lat="48.67011" lon="7.12998">
        <ele>330.4</ele>
        <time>2023-12-06T15:10:19Z</time>
      </trkpt>
      <trkpt lat="48.67028" lon="7.12983">
        <ele>329.7</ele>
        <time>2023-12-06T15:10:27Z</time>
      </trkpt>
      <trkpt lat="48.67045" lon="7.12975">
        <ele>328.7</ele>
        <time>2023-12-06T15:10:31Z</time>
      </trkpt>
      <trkpt lat="48.67063" lon="7.12982">
        <ele>327.5</ele>
        <time>2023-12-06T15:10:36Z</time>
      </trkpt>
      <trkpt lat="48.6708" lon="7.12996">
        <ele>326.4</ele>
        <time>2023-12-06T15:10:46Z</time>
      </trkpt>
      <trkpt lat="48.67092" lon="7.13009">
        <ele>325.4</ele>
        <time>2023-12-06T15:10:57Z</time>
      </trkpt>
      <trkpt lat="48.6709" lon="7.13013">
        <ele>325.5</ele>
        <time>2023-12-06T15:11:18Z</time>
      </trkpt>
      <trkpt lat="48.6709" lon="7.13013">
        <ele>325.5</ele>
        <time>2023-12-06T15:11:20Z</time>
      </trkpt>
      <trkpt lat="48.67073" lon="7.13001">
        <ele>326.1</ele>
        <time>2023-12-06T15:11:28Z</time>
      </trkpt>
      <trkpt lat="48.67053" lon="7.12986">
        <ele>326.9</ele>
        <time>2023-12-06T15:11:33Z</time>
      </trkpt>
      <trkpt lat="48.67034" lon="7.12977">
        <ele>327.5</ele>
        <time>2023-12-06T15:11:39Z</time>
      </trkpt>
      <trkpt lat="48.67017" lon="7.1299">
        <ele>328.1</ele>
        <time>2023-12-06T15:11:45Z</time>
      </trkpt>
      <trkpt lat="48.67" lon="7.13006">
        <ele>328.7</ele>
        <time>2023-12-06T15:11:52Z</time>
      </trkpt>
      <trkpt lat="48.66985" lon="7.13025">
        <ele>329.3</ele>
        <time>2023-12-06T15:11:58Z</time>
      </trkpt>
      <trkpt lat="48.6697" lon="7.13038">
        <ele>329.9</ele>
        <time>2023-12-06T15:12:05Z</time>
      </trkpt>
      <trkpt lat="48.6697" lon="7.13042">
        <ele>330</ele>
        <time>2023-12-06T15:12:10Z</time>
      </trkpt>
      <trkpt lat="48.66987" lon="7.1303">
        <ele>330.6</ele>
        <time>2023-12-06T15:12:18Z</time>
      </trkpt>
      <trkpt lat="48.67004" lon="7.13015">
        <ele>330.5</ele>
        <time>2023-12-06T15:12:25Z</time>
      </trkpt>
      <trkpt lat="48.67019" lon="7.12996">
        <ele>329.6</ele>
        <time>2023-12-06T15:12:35Z</time>
      </trkpt>
      <trkpt lat="48.67034" lon="7.12978">
        <ele>328.6</ele>
        <time>2023-12-06T15:12:45Z</time>
      </trkpt>
      <trkpt lat="48.67049" lon="7.12974">
        <ele>327.8</ele>
        <time>2023-12-06T15:12:57Z</time>
      </trkpt>
      <trkpt lat="48.67066" lon="7.12988">
        <ele>326.9</ele>
        <time>2023-12-06T15:13:04Z</time>
      </trkpt>
      <trkpt lat="48.67084" lon="7.12999">
        <ele>325.9</ele>
        <time>2023-12-06T15:13:11Z</time>
      </trkpt>
      <trkpt lat="48.67095" lon="7.13008">
        <ele>325.3</ele>
        <time>2023-12-06T15:13:21Z</time>
      </trkpt>
      <trkpt lat="48.67096" lon="7.13009">
        <ele>325.2</ele>
        <time>2023-12-06T15:13:22Z</time>
      </trkpt>
      <trkpt lat="48.67078" lon="7.12999">
        <ele>325.8</ele>
        <time>2023-12-06T15:13:29Z</time>
      </trkpt>
      <trkpt lat="48.67059" lon="7.12984">
        <ele>326.4</ele>
        <time>2023-12-06T15:13:34Z</time>
      </trkpt>
      <trkpt lat="48.6704" lon="7.12975">
        <ele>326.9</ele>
        <time>2023-12-06T15:13:39Z</time>
      </trkpt>
      <trkpt lat="48.67021" lon="7.12985">
        <ele>327.4</ele>
        <time>2023-12-06T15:13:44Z</time>
      </trkpt>
      <trkpt lat="48.67005" lon="7.13">
        <ele>328</ele>
        <time>2023-12-06T15:13:50Z</time>
      </trkpt>
      <trkpt lat="48.66991" lon="7.13018">
        <ele>328.5</ele>
        <time>2023-12-06T15:13:57Z</time>
      </trkpt>
      <trkpt lat="48.66976" lon="7.13039">
        <ele>329</ele>
        <time>2023-12-06T15:14:06Z</time>
      </trkpt>
      <trkpt lat="48.66974" lon="7.13042">
        <ele>329.1</ele>
        <time>2023-12-06T15:14:07Z</time>
      </trkpt>
      <trkpt lat="48.66975" lon="7.13043">
        <ele>329.1</ele>
        <time>2023-12-06T15:14:11Z</time>
      </trkpt>
      <trkpt lat="48.66991" lon="7.13025">
        <ele>329.7</ele>
        <time>2023-12-06T15:14:21Z</time>
      </trkpt>
      <trkpt lat="48.67007" lon="7.13012">
        <ele>330.2</ele>
        <time>2023-12-06T15:14:28Z</time>
      </trkpt>
      <trkpt lat="48.67024" lon="7.12997">
        <ele>329.7</ele>
        <time>2023-12-06T15:14:36Z</time>
      </trkpt>
      <trkpt lat="48.6704" lon="7.1298">
        <ele>328.7</ele>
        <time>2023-12-06T15:14:45Z</time>
      </trkpt>
      <trkpt lat="48.67059" lon="7.12981">
        <ele>327.6</ele>
        <time>2023-12-06T15:14:57Z</time>
      </trkpt>
      <trkpt lat="48.67076" lon="7.12994">
        <ele>326.5</ele>
        <time>2023-12-06T15:15:05Z</time>
      </trkpt>
      <trkpt lat="48.67091" lon="7.13009">
        <ele>325.6</ele>
        <time>2023-12-06T15:15:15Z</time>
      </trkpt>
      <trkpt lat="48.6709" lon="7.13011">
        <ele>325.5</ele>
        <time>2023-12-06T15:15:18Z</time>
      </trkpt>
      <trkpt lat="48.67094" lon="7.13016">
        <ele>325.2</ele>
        <time>2023-12-06T15:15:22Z</time>
      </trkpt>
      <trkpt lat="48.67094" lon="7.13019">
        <ele>325.1</ele>
        <time>2023-12-06T15:15:24Z</time>
      </trkpt>
      <trkpt lat="48.67102" lon="7.13019">
        <ele>324.7</ele>
        <time>2023-12-06T15:15:35Z</time>
      </trkpt>
      <trkpt lat="48.67102" lon="7.1302">
        <ele>324.7</ele>
        <time>2023-12-06T15:15:37Z</time>
      </trkpt>
      <trkpt lat="48.67085" lon="7.13006">
        <ele>325.3</ele>
        <time>2023-12-06T15:15:43Z</time>
      </trkpt>
      <trkpt lat="48.67069" lon="7.12991">
        <ele>326</ele>
        <time>2023-12-06T15:15:47Z</time>
      </trkpt>
      <trkpt lat="48.67051" lon="7.12978">
        <ele>326.6</ele>
        <time>2023-12-06T15:15:52Z</time>
      </trkpt>
      <trkpt lat="48.67031" lon="7.12969">
        <ele>327.3</ele>
        <time>2023-12-06T15:15:57Z</time>
      </trkpt>
      <trkpt lat="48.67013" lon="7.1298">
        <ele>328</ele>
        <time>2023-12-06T15:16:04Z</time>
      </trkpt>
      <trkpt lat="48.66999" lon="7.12999">
        <ele>328.7</ele>
        <time>2023-12-06T15:16:11Z</time>
      </trkpt>
      <trkpt lat="48.66984" lon="7.13019">
        <ele>329.3</ele>
        <time>2023-12-06T15:16:18Z</time>
      </trkpt>
      <trkpt lat="48.66975" lon="7.13025">
        <ele>329.7</ele>
        <time>2023-12-06T15:16:22Z</time>
      </trkpt>
      <trkpt lat="48.66972" lon="7.13034">
        <ele>329.9</ele>
        <time>2023-12-06T15:16:28Z</time>
      </trkpt>
      <trkpt lat="48.66989" lon="7.13024">
        <ele>330.5</ele>
        <time>2023-12-06T15:16:36Z</time>
      </trkpt>
      <trkpt lat="48.67006" lon="7.13013">
        <ele>330.4</ele>
        <time>2023-12-06T15:16:44Z</time>
      </trkpt>
      <trkpt lat="48.67022" lon="7.12998">
        <ele>329.5</ele>
        <time>2023-12-06T15:16:51Z</time>
      </trkpt>
      <trkpt lat="48.67032" lon="7.12969">
        <ele>328.5</ele>
        <time>2023-12-06T15:17:01Z</time>
      </trkpt>
      <trkpt lat="48.6705" lon="7.1297">
        <ele>327.7</ele>
        <time>2023-12-06T15:17:11Z</time>
      </trkpt>
      <trkpt lat="48.67066" lon="7.12985">
        <ele>326.8</ele>
        <time>2023-12-06T15:17:19Z</time>
      </trkpt>
      <trkpt lat="48.67082" lon="7.13002">
        <ele>325.9</ele>
        <time>2023-12-06T15:17:26Z</time>
      </trkpt>
      <trkpt lat="48.67097" lon="7.13018">
        <ele>325</ele>
        <time>2023-12-06T15:17:37Z</time>
      </trkpt>
      <trkpt lat="48.67098" lon="7.13019">
        <ele>324.9</ele>
        <time>2023-12-06T15:17:40Z</time>
      </trkpt>
      <trkpt lat="48.67106" lon="7.1302">
        <ele>324.4</ele>
        <time>2023-12-06T15:17:47Z</time>
      </trkpt>
      <trkpt lat="48.67089" lon="7.13006">
        <ele>325</ele>
        <time>2023-12-06T15:17:56Z</time>
      </trkpt>
      <trkpt lat="48.67072" lon="7.12987">
        <ele>325.7</ele>
        <time>2023-12-06T15:18:01Z</time>
      </trkpt>
      <trkpt lat="48.67055" lon="7.12973">
        <ele>326.4</ele>
        <time>2023-12-06T15:18:05Z</time>
      </trkpt>
      <trkpt lat="48.67036" lon="7.12962">
        <ele>327</ele>
        <time>2023-12-06T15:18:10Z</time>
      </trkpt>
      <trkpt lat="48.67019" lon="7.12972">
        <ele>327.6</ele>
        <time>2023-12-06T15:18:16Z</time>
      </trkpt>
      <trkpt lat="48.67003" lon="7.12992">
        <ele>328.3</ele>
        <time>2023-12-06T15:18:23Z</time>
      </trkpt>
      <trkpt lat="48.66988" lon="7.13013">
        <ele>329</ele>
        <time>2023-12-06T15:18:30Z</time>
      </trkpt>
      <trkpt lat="48.66984" lon="7.13019">
        <ele>329.1</ele>
        <time>2023-12-06T15:18:32Z</time>
      </trkpt>
      <trkpt lat="48.66977" lon="7.13025">
        <ele>329.4</ele>
        <time>2023-12-06T15:18:37Z</time>
      </trkpt>
      <trkpt lat="48.66992" lon="7.13008">
        <ele>330</ele>
        <time>2023-12-06T15:18:44Z</time>
      </trkpt>
      <trkpt lat="48.67007" lon="7.1299">
        <ele>330.6</ele>
        <time>2023-12-06T15:18:52Z</time>
      </trkpt>
      <trkpt lat="48.67022" lon="7.12973">
        <ele>330.3</ele>
        <time>2023-12-06T15:19:01Z</time>
      </trkpt>
      <trkpt lat="48.67038" lon="7.12971">
        <ele>329.3</ele>
        <time>2023-12-06T15:19:12Z</time>
      </trkpt>
      <trkpt lat="48.67055" lon="7.12985">
        <ele>328</ele>
        <time>2023-12-06T15:19:19Z</time>
      </trkpt>
      <trkpt lat="48.67071" lon="7.13">
        <ele>326.8</ele>
        <time>2023-12-06T15:19:27Z</time>
      </trkpt>
      <trkpt lat="48.67088" lon="7.13016">
        <ele>325.5</ele>
        <time>2023-12-06T15:19:38Z</time>
      </trkpt>
      <trkpt lat="48.67097" lon="7.1302">
        <ele>325</ele>
        <time>2023-12-06T15:19:46Z</time>
      </trkpt>
      <trkpt lat="48.67099" lon="7.13021">
        <ele>324.8</ele>
        <time>2023-12-06T15:19:51Z</time>
      </trkpt>
      <trkpt lat="48.67094" lon="7.13016">
        <ele>325</ele>
        <time>2023-12-06T15:19:55Z</time>
      </trkpt>
      <trkpt lat="48.67076" lon="7.13003">
        <ele>325.6</ele>
        <time>2023-12-06T15:20:02Z</time>
      </trkpt>
      <trkpt lat="48.67057" lon="7.12991">
        <ele>326.2</ele>
        <time>2023-12-06T15:20:07Z</time>
      </trkpt>
      <trkpt lat="48.67039" lon="7.12977">
        <ele>326.8</ele>
        <time>2023-12-06T15:20:13Z</time>
      </trkpt>
      <trkpt lat="48.67032" lon="7.12974">
        <ele>327</ele>
        <time>2023-12-06T15:20:15Z</time>
      </trkpt>
      <trkpt lat="48.67022" lon="7.12977">
        <ele>327.3</ele>
        <time>2023-12-06T15:20:18Z</time>
      </trkpt>
      <trkpt lat="48.67015" lon="7.1298">
        <ele>327.6</ele>
        <time>2023-12-06T15:20:20Z</time>
      </trkpt>
      <trkpt lat="48.66999" lon="7.12999">
        <ele>328.2</ele>
        <time>2023-12-06T15:20:27Z</time>
      </trkpt>
      <trkpt lat="48.66986" lon="7.13017">
        <ele>328.7</ele>
        <time>2023-12-06T15:20:34Z</time>
      </trkpt>
      <trkpt lat="48.66982" lon="7.13019">
        <ele>328.9</ele>
        <time>2023-12-06T15:20:36Z</time>
      </trkpt>
      <trkpt lat="48.66979" lon="7.1302">
        <ele>328.9</ele>
        <time>2023-12-06T15:20:40Z</time>
      </trkpt>
      <trkpt lat="48.66998" lon="7.13013">
        <ele>329.5</ele>
        <time>2023-12-06T15:20:49Z</time>
      </trkpt>
      <trkpt lat="48.67014" lon="7.13">
        <ele>330.1</ele>
        <time>2023-12-06T15:20:57Z</time>
      </trkpt>
      <trkpt lat="48.6703" lon="7.12985">
        <ele>329.6</ele>
        <time>2023-12-06T15:21:07Z</time>
      </trkpt>
      <trkpt lat="48.67043" lon="7.1297">
        <ele>328.6</ele>
        <time>2023-12-06T15:21:21Z</time>
      </trkpt>
      <trkpt lat="48.67057" lon="7.12988">
        <ele>327.6</ele>
        <time>2023-12-06T15:21:32Z</time>
      </trkpt>
      <trkpt lat="48.67073" lon="7.13002">
        <ele>326.5</ele>
        <time>2023-12-06T15:21:44Z</time>
      </trkpt>
      <trkpt lat="48.6709" lon="7.13016">
        <ele>325.4</ele>
        <time>2023-12-06T15:21:53Z</time>
      </trkpt>
      <trkpt lat="48.67102" lon="7.13026">
        <ele>324.5</ele>
        <time>2023-12-06T15:22:03Z</time>
      </trkpt>
      <trkpt lat="48.671" lon="7.13025">
        <ele>324.6</ele>
        <time>2023-12-06T15:22:09Z</time>
      </trkpt>
      <trkpt lat="48.671" lon="7.13024">
        <ele>324.6</ele>
        <time>2023-12-06T15:22:11Z</time>
      </trkpt>
      <trkpt lat="48.67094" lon="7.13018">
        <ele>324.8</ele>
        <time>2023-12-06T15:22:15Z</time>
      </trkpt>
      <trkpt lat="48.67077" lon="7.13006">
        <ele>325.5</ele>
        <time>2023-12-06T15:22:20Z</time>
      </trkpt>
      <trkpt lat="48.67059" lon="7.12991">
        <ele>326.1</ele>
        <time>2023-12-06T15:22:25Z</time>
      </trkpt>
      <trkpt lat="48.67043" lon="7.12979">
        <ele>326.8</ele>
        <time>2023-12-06T15:22:30Z</time>
      </trkpt>
      <trkpt lat="48.67023" lon="7.12983">
        <ele>327.4</ele>
        <time>2023-12-06T15:22:36Z</time>
      </trkpt>
      <trkpt lat="48.67005" lon="7.12996">
        <ele>328.1</ele>
        <time>2023-12-06T15:22:43Z</time>
      </trkpt>
      <trkpt lat="48.66985" lon="7.13006">
        <ele>328.8</ele>
        <time>2023-12-06T15:22:51Z</time>
      </trkpt>
      <trkpt lat="48.66977" lon="7.13012">
        <ele>329.1</ele>
        <time>2023-12-06T15:22:54Z</time>
      </trkpt>
      <trkpt lat="48.6697" lon="7.13018">
        <ele>329.4</ele>
        <time>2023-12-06T15:22:59Z</time>
      </trkpt>
      <trkpt lat="48.66985" lon="7.13005">
        <ele>329.9</ele>
        <time>2023-12-06T15:23:08Z</time>
      </trkpt>
      <trkpt lat="48.67002" lon="7.12989">
        <ele>330.6</ele>
        <time>2023-12-06T15:23:17Z</time>
      </trkpt>
      <trkpt lat="48.67019" lon="7.12978">
        <ele>330.3</ele>
        <time>2023-12-06T15:23:24Z</time>
      </trkpt>
      <trkpt lat="48.67038" lon="7.12969">
        <ele>329.1</ele>
        <time>2023-12-06T15:23:37Z</time>
      </trkpt>
      <trkpt lat="48.67054" lon="7.12983">
        <ele>328</ele>
        <time>2023-12-06T15:23:43Z</time>
      </trkpt>
      <trkpt lat="48.6707" lon="7.12999">
        <ele>326.8</ele>
        <time>2023-12-06T15:23:51Z</time>
      </trkpt>
      <trkpt lat="48.67087" lon="7.13011">
        <ele>325.7</ele>
        <time>2023-12-06T15:24:01Z</time>
      </trkpt>
      <trkpt lat="48.67101" lon="7.13025">
        <ele>324.6</ele>
        <time>2023-12-06T15:24:13Z</time>
      </trkpt>
      <trkpt lat="48.67101" lon="7.13025">
        <ele>324.6</ele>
        <time>2023-12-06T15:24:17Z</time>
      </trkpt>
      <trkpt lat="48.67083" lon="7.13015">
        <ele>325.3</ele>
        <time>2023-12-06T15:24:26Z</time>
      </trkpt>
      <trkpt lat="48.67066" lon="7.13004">
        <ele>326</ele>
        <time>2023-12-06T15:24:31Z</time>
      </trkpt>
      <trkpt lat="48.67049" lon="7.12986">
        <ele>326.8</ele>
        <time>2023-12-06T15:24:36Z</time>
      </trkpt>
      <trkpt lat="48.6703" lon="7.12977">
        <ele>327.6</ele>
        <time>2023-12-06T15:24:41Z</time>
      </trkpt>
      <trkpt lat="48.67015" lon="7.12991">
        <ele>328.3</ele>
        <time>2023-12-06T15:24:47Z</time>
      </trkpt>
      <trkpt lat="48.66998" lon="7.13004">
        <ele>329</ele>
        <time>2023-12-06T15:24:55Z</time>
      </trkpt>
      <trkpt lat="48.66985" lon="7.13024">
        <ele>329.7</ele>
        <time>2023-12-06T15:25:02Z</time>
      </trkpt>
      <trkpt lat="48.66983" lon="7.13028">
        <ele>329.8</ele>
        <time>2023-12-06T15:25:07Z</time>
      </trkpt>
      <trkpt lat="48.67001" lon="7.13015">
        <ele>330.6</ele>
        <time>2023-12-06T15:25:16Z</time>
      </trkpt>
      <trkpt lat="48.67017" lon="7.12997">
        <ele>330.1</ele>
        <time>2023-12-06T15:25:27Z</time>
      </trkpt>
      <trkpt lat="48.67029" lon="7.12971">
        <ele>329</ele>
        <time>2023-12-06T15:25:40Z</time>
      </trkpt>
      <trkpt lat="48.67046" lon="7.12981">
        <ele>328</ele>
        <time>2023-12-06T15:25:52Z</time>
      </trkpt>
      <trkpt lat="48.67063" lon="7.12994">
        <ele>326.9</ele>
        <time>2023-12-06T15:26:02Z</time>
      </trkpt>
      <trkpt lat="48.6708" lon="7.1301">
        <ele>325.9</ele>
        <time>2023-12-06T15:26:12Z</time>
      </trkpt>
      <trkpt lat="48.67096" lon="7.13021">
        <ele>324.9</ele>
        <time>2023-12-06T15:26:20Z</time>
      </trkpt>
      <trkpt lat="48.67107" lon="7.13027">
        <ele>324.2</ele>
        <time>2023-12-06T15:26:28Z</time>
      </trkpt>
      <trkpt lat="48.67107" lon="7.13026">
        <ele>324.2</ele>
        <time>2023-12-06T15:26:33Z</time>
      </trkpt>
      <trkpt lat="48.67106" lon="7.13027">
        <ele>324.2</ele>
        <time>2023-12-06T15:26:34Z</time>
      </trkpt>
      <trkpt lat="48.67105" lon="7.13026">
        <ele>324.3</ele>
        <time>2023-12-06T15:26:36Z</time>
      </trkpt>
      <trkpt lat="48.67087" lon="7.13013">
        <ele>325</ele>
        <time>2023-12-06T15:26:43Z</time>
      </trkpt>
      <trkpt lat="48.6707" lon="7.13003">
        <ele>325.7</ele>
        <time>2023-12-06T15:26:49Z</time>
      </trkpt>
      <trkpt lat="48.6705" lon="7.12992">
        <ele>326.5</ele>
        <time>2023-12-06T15:26:55Z</time>
      </trkpt>
      <trkpt lat="48.67032" lon="7.12995">
        <ele>327.1</ele>
        <time>2023-12-06T15:27:02Z</time>
      </trkpt>
      <trkpt lat="48.67014" lon="7.13008">
        <ele>327.9</ele>
        <time>2023-12-06T15:27:10Z</time>
      </trkpt>
      <trkpt lat="48.66995" lon="7.13022">
        <ele>328.7</ele>
        <time>2023-12-06T15:27:17Z</time>
      </trkpt>
      <trkpt lat="48.6699" lon="7.13026">
        <ele>328.9</ele>
        <time>2023-12-06T15:27:19Z</time>
      </trkpt>
      <trkpt lat="48.66982" lon="7.13027">
        <ele>329.2</ele>
        <time>2023-12-06T15:27:26Z</time>
      </trkpt>
      <trkpt lat="48.66996" lon="7.13006">
        <ele>329.9</ele>
        <time>2023-12-06T15:27:36Z</time>
      </trkpt>
      <trkpt lat="48.6701" lon="7.12985">
        <ele>330.6</ele>
        <time>2023-12-06T15:27:45Z</time>
      </trkpt>
      <trkpt lat="48.67026" lon="7.12969">
        <ele>330.1</ele>
        <time>2023-12-06T15:27:53Z</time>
      </trkpt>
      <trkpt lat="48.67043" lon="7.12976">
        <ele>329</ele>
        <time>2023-12-06T15:28:01Z</time>
      </trkpt>
      <trkpt lat="48.67059" lon="7.12988">
        <ele>327.8</ele>
        <time>2023-12-06T15:28:11Z</time>
      </trkpt>
      <trkpt lat="48.67076" lon="7.12998">
        <ele>326.6</ele>
        <time>2023-12-06T15:28:21Z</time>
      </trkpt>
      <trkpt lat="48.67094" lon="7.13012">
        <ele>325.3</ele>
        <time>2023-12-06T15:28:27Z</time>
      </trkpt>
      <trkpt lat="48.67106" lon="7.13023">
        <ele>324.3</ele>
        <time>2023-12-06T15:28:40Z</time>
      </trkpt>
      <trkpt lat="48.67087" lon="7.13014">
        <ele>325</ele>
        <time>2023-12-06T15:28:48Z</time>
      </trkpt>
      <trkpt lat="48.6707" lon="7.13">
        <ele>325.7</ele>
        <time>2023-12-06T15:28:54Z</time>
      </trkpt>
      <trkpt lat="48.67051" lon="7.12989">
        <ele>326.4</ele>
        <time>2023-12-06T15:28:59Z</time>
      </trkpt>
      <trkpt lat="48.67038" lon="7.12982">
        <ele>326.9</ele>
        <time>2023-12-06T15:29:03Z</time>
      </trkpt>
      <trkpt lat="48.67031" lon="7.12981">
        <ele>327.1</ele>
        <time>2023-12-06T15:29:05Z</time>
      </trkpt>
      <trkpt lat="48.67022" lon="7.12983">
        <ele>327.4</ele>
        <time>2023-12-06T15:29:08Z</time>
      </trkpt>
      <trkpt lat="48.67017" lon="7.12986">
        <ele>327.6</ele>
        <time>2023-12-06T15:29:10Z</time>
      </trkpt>
      <trkpt lat="48.67013" lon="7.1299">
        <ele>327.8</ele>
        <time>2023-12-06T15:29:12Z</time>
      </trkpt>
      <trkpt lat="48.66996" lon="7.13005">
        <ele>328.5</ele>
        <time>2023-12-06T15:29:19Z</time>
      </trkpt>
      <trkpt lat="48.66983" lon="7.13021">
        <ele>329.1</ele>
        <time>2023-12-06T15:29:25Z</time>
      </trkpt>
      <trkpt lat="48.66978" lon="7.13022">
        <ele>329.3</ele>
        <time>2023-12-06T15:29:31Z</time>
      </trkpt>
      <trkpt lat="48.66993" lon="7.13005">
        <ele>329.9</ele>
        <time>2023-12-06T15:29:39Z</time>
      </trkpt>
      <trkpt lat="48.67006" lon="7.12987">
        <ele>330.6</ele>
        <time>2023-12-06T15:29:47Z</time>
      </trkpt>
      <trkpt lat="48.67021" lon="7.12966">
        <ele>330.5</ele>
        <time>2023-12-06T15:29:55Z</time>
      </trkpt>
      <trkpt lat="48.67038" lon="7.1297">
        <ele>329.3</ele>
        <time>2023-12-06T15:30:04Z</time>
      </trkpt>
      <trkpt lat="48.67054" lon="7.12986">
        <ele>328.1</ele>
        <time>2023-12-06T15:30:14Z</time>
      </trkpt>
      <trkpt lat="48.6707" lon="7.13001">
        <ele>326.9</ele>
        <time>2023-12-06T15:30:25Z</time>
      </trkpt>
      <trkpt lat="48.67086" lon="7.13018">
        <ele>325.6</ele>
        <time>2023-12-06T15:30:33Z</time>
      </trkpt>
      <trkpt lat="48.67103" lon="7.13027">
        <ele>324.4</ele>
        <time>2023-12-06T15:30:44Z</time>
      </trkpt>
      <trkpt lat="48.67104" lon="7.13028">
        <ele>324.3</ele>
        <time>2023-12-06T15:30:46Z</time>
      </trkpt>
      <trkpt lat="48.67103" lon="7.13026">
        <ele>324.4</ele>
        <time>2023-12-06T15:30:50Z</time>
      </trkpt>
      <trkpt lat="48.67084" lon="7.13015">
        <ele>325.1</ele>
        <time>2023-12-06T15:30:58Z</time>
      </trkpt>
      <trkpt lat="48.67065" lon="7.13002">
        <ele>325.7</ele>
        <time>2023-12-06T15:31:04Z</time>
      </trkpt>
      <trkpt lat="48.67045" lon="7.12992">
        <ele>326.4</ele>
        <time>2023-12-06T15:31:09Z</time>
      </trkpt>
      <trkpt lat="48.67027" lon="7.12988">
        <ele>327</ele>
        <time>2023-12-06T15:31:14Z</time>
      </trkpt>
      <trkpt lat="48.67009" lon="7.12997">
        <ele>327.6</ele>
        <time>2023-12-06T15:31:20Z</time>
      </trkpt>
      <trkpt lat="48.66993" lon="7.1301">
        <ele>328.2</ele>
        <time>2023-12-06T15:31:27Z</time>
      </trkpt>
      <trkpt lat="48.66978" lon="7.13026">
        <ele>328.8</ele>
        <time>2023-12-06T15:31:34Z</time>
      </trkpt>
      <trkpt lat="48.66976" lon="7.13029">
        <ele>328.9</ele>
        <time>2023-12-06T15:31:35Z</time>
      </trkpt>
      <trkpt lat="48.66973" lon="7.13035">
        <ele>329.1</ele>
        <time>2023-12-06T15:31:40Z</time>
      </trkpt>
      <trkpt lat="48.66986" lon="7.13016">
        <ele>329.7</ele>
        <time>2023-12-06T15:31:51Z</time>
      </trkpt>
      <trkpt lat="48.66995" lon="7.13009">
        <ele>330</ele>
        <time>2023-12-06T15:31:58Z</time>
      </trkpt>
      <trkpt lat="48.66996" lon="7.13009">
        <ele>330</ele>
        <time>2023-12-06T15:32:02Z</time>
      </trkpt>
      <trkpt lat="48.67008" lon="7.12989">
        <ele>330.6</ele>
        <time>2023-12-06T15:32:11Z</time>
      </trkpt>
      <trkpt lat="48.67023" lon="7.12969">
        <ele>330.3</ele>
        <time>2023-12-06T15:32:20Z</time>
      </trkpt>
      <trkpt lat="48.6704" lon="7.12976">
        <ele>329.3</ele>
        <time>2023-12-06T15:32:29Z</time>
      </trkpt>
      <trkpt lat="48.67055" lon="7.12993">
        <ele>328.2</ele>
        <time>2023-12-06T15:32:41Z</time>
      </trkpt>
      <trkpt lat="48.67072" lon="7.13004">
        <ele>327.1</ele>
        <time>2023-12-06T15:32:51Z</time>
      </trkpt>
      <trkpt lat="48.67076" lon="7.13002">
        <ele>326.9</ele>
        <time>2023-12-06T15:32:56Z</time>
      </trkpt>
      <trkpt lat="48.67074" lon="7.12999">
        <ele>326.7</ele>
        <time>2023-12-06T15:32:59Z</time>
      </trkpt>
      <trkpt lat="48.67057" lon="7.12989">
        <ele>325.6</ele>
        <time>2023-12-06T15:33:12Z</time>
      </trkpt>
      <trkpt lat="48.67056" lon="7.12991">
        <ele>325.6</ele>
        <time>2023-12-06T15:33:16Z</time>
      </trkpt>
      <trkpt lat="48.67073" lon="7.13004">
        <ele>324.5</ele>
        <time>2023-12-06T15:33:30Z</time>
      </trkpt>
      <trkpt lat="48.67076" lon="7.13006">
        <ele>324.3</ele>
        <time>2023-12-06T15:33:37Z</time>
      </trkpt>
      <trkpt lat="48.67076" lon="7.13006">
        <ele>324.2</ele>
        <time>2023-12-06T15:33:41Z</time>
      </trkpt>
      <trkpt lat="48.67076" lon="7.13007">
        <ele>324.2</ele>
        <time>2023-12-06T15:33:43Z</time>
      </trkpt>
      <trkpt lat="48.67081" lon="7.13011">
        <ele>323.8</ele>
        <time>2023-12-06T15:33:48Z</time>
      </trkpt>
      <trkpt lat="48.671" lon="7.13025">
        <ele>322.6</ele>
        <time>2023-12-06T15:33:58Z</time>
      </trkpt>
      <trkpt lat="48.67117" lon="7.13036">
        <ele>321.5</ele>
        <time>2023-12-06T15:34:10Z</time>
      </trkpt>
      <trkpt lat="48.67133" lon="7.13049">
        <ele>320.5</ele>
        <time>2023-12-06T15:34:20Z</time>
      </trkpt>
      <trkpt lat="48.67151" lon="7.13062">
        <ele>319.3</ele>
        <time>2023-12-06T15:34:32Z</time>
      </trkpt>
      <trkpt lat="48.6717" lon="7.13072">
        <ele>318.2</ele>
        <time>2023-12-06T15:34:41Z</time>
      </trkpt>
      <trkpt lat="48.67186" lon="7.13084">
        <ele>317.1</ele>
        <time>2023-12-06T15:34:49Z</time>
      </trkpt>
      <trkpt lat="48.67202" lon="7.13103">
        <ele>315.9</ele>
        <time>2023-12-06T15:35:02Z</time>
      </trkpt>
      <trkpt lat="48.6722" lon="7.13115">
        <ele>314.8</ele>
        <time>2023-12-06T15:35:10Z</time>
      </trkpt>
      <trkpt lat="48.67237" lon="7.1313">
        <ele>313.6</ele>
        <time>2023-12-06T15:35:18Z</time>
      </trkpt>
      <trkpt lat="48.67255" lon="7.13138">
        <ele>312.5</ele>
        <time>2023-12-06T15:35:25Z</time>
      </trkpt>
      <trkpt lat="48.67272" lon="7.13149">
        <ele>311.5</ele>
        <time>2023-12-06T15:35:34Z</time>
      </trkpt>
      <trkpt lat="48.67288" lon="7.13162">
        <ele>310.4</ele>
        <time>2023-12-06T15:35:46Z</time>
      </trkpt>
      <trkpt lat="48.67305" lon="7.13174">
        <ele>309.3</ele>
        <time>2023-12-06T15:35:59Z</time>
      </trkpt>
      <trkpt lat="48.6732" lon="7.13185">
        <ele>308.4</ele>
        <time>2023-12-06T15:36:09Z</time>
      </trkpt>
      <trkpt lat="48.67326" lon="7.13188">
        <ele>308</ele>
        <time>2023-12-06T15:36:13Z</time>
      </trkpt>
      <trkpt lat="48.67344" lon="7.13196">
        <ele>306.9</ele>
        <time>2023-12-06T15:36:24Z</time>
      </trkpt>
      <trkpt lat="48.67349" lon="7.13199">
        <ele>306.9</ele>
        <time>2023-12-06T15:36:27Z</time>
      </trkpt>
      <trkpt lat="48.67366" lon="7.13211">
        <ele>306.9</ele>
        <time>2023-12-06T15:36:40Z</time>
      </trkpt>
      <trkpt lat="48.67368" lon="7.13213">
        <ele>306.9</ele>
        <time>2023-12-06T15:36:42Z</time>
      </trkpt>
      <trkpt lat="48.6737" lon="7.13215">
        <ele>306.9</ele>
        <time>2023-12-06T15:36:44Z</time>
      </trkpt>
      <trkpt lat="48.67382" lon="7.13226">
        <ele>306.9</ele>
        <time>2023-12-06T15:36:53Z</time>
      </trkpt>
      <trkpt lat="48.67398" lon="7.1324">
        <ele>306.9</ele>
        <time>2023-12-06T15:37:00Z</time>
      </trkpt>
      <trkpt lat="48.67416" lon="7.13248">
        <ele>306.8</ele>
        <time>2023-12-06T15:37:11Z</time>
      </trkpt>
      <trkpt lat="48.67421" lon="7.13253">
        <ele>306.8</ele>
        <time>2023-12-06T15:37:14Z</time>
      </trkpt>
      <trkpt lat="48.67433" lon="7.13259">
        <ele>306.8</ele>
        <time>2023-12-06T15:37:20Z</time>
      </trkpt>
      <trkpt lat="48.67451" lon="7.13244">
        <ele>306.5</ele>
        <time>2023-12-06T15:37:26Z</time>
      </trkpt>
      <trkpt lat="48.67453" lon="7.13232">
        <ele>306.2</ele>
        <time>2023-12-06T15:37:30Z</time>
      </trkpt>
      <trkpt lat="48.67454" lon="7.13203">
        <ele>305.7</ele>
        <time>2023-12-06T15:37:39Z</time>
      </trkpt>
      <trkpt lat="48.67457" lon="7.13174">
        <ele>305.5</ele>
        <time>2023-12-06T15:37:48Z</time>
      </trkpt>
      <trkpt lat="48.67459" lon="7.13166">
        <ele>305.5</ele>
        <time>2023-12-06T15:37:52Z</time>
      </trkpt>
      <trkpt lat="48.67459" lon="7.13163">
        <ele>305.5</ele>
        <time>2023-12-06T15:39:39Z</time>
      </trkpt>
      <trkpt lat="48.67451" lon="7.1319">
        <ele>305.5</ele>
        <time>2023-12-06T15:39:50Z</time>
      </trkpt>
      <trkpt lat="48.67454" lon="7.13221">
        <ele>305.9</ele>
        <time>2023-12-06T15:39:59Z</time>
      </trkpt>
      <trkpt lat="48.67455" lon="7.13249">
        <ele>306.6</ele>
        <time>2023-12-06T15:40:10Z</time>
      </trkpt>
      <trkpt lat="48.67452" lon="7.13258">
        <ele>306.8</ele>
        <time>2023-12-06T15:40:15Z</time>
      </trkpt>
      <trkpt lat="48.67449" lon="7.13279">
        <ele>307.4</ele>
        <time>2023-12-06T15:40:24Z</time>
      </trkpt>
      <trkpt lat="48.67444" lon="7.13308">
        <ele>308.1</ele>
        <time>2023-12-06T15:40:36Z</time>
      </trkpt>
      <trkpt lat="48.6744" lon="7.13336">
        <ele>308.7</ele>
        <time>2023-12-06T15:40:49Z</time>
      </trkpt>
      <trkpt lat="48.67431" lon="7.1336">
        <ele>309.3</ele>
        <time>2023-12-06T15:40:58Z</time>
      </trkpt>
      <trkpt lat="48.67419" lon="7.13384">
        <ele>310</ele>
        <time>2023-12-06T15:41:06Z</time>
      </trkpt>
      <trkpt lat="48.67411" lon="7.13411">
        <ele>310.7</ele>
        <time>2023-12-06T15:41:14Z</time>
      </trkpt>
      <trkpt lat="48.67408" lon="7.13418">
        <ele>311</ele>
        <time>2023-12-06T15:41:15Z</time>
      </trkpt>
      <trkpt lat="48.67399" lon="7.13444">
        <ele>312</ele>
        <time>2023-12-06T15:41:26Z</time>
      </trkpt>
      <trkpt lat="48.67389" lon="7.13467">
        <ele>313.3</ele>
        <time>2023-12-06T15:41:35Z</time>
      </trkpt>
      <trkpt lat="48.67375" lon="7.13486">
        <ele>314.7</ele>
        <time>2023-12-06T15:41:46Z</time>
      </trkpt>
      <trkpt lat="48.67362" lon="7.13506">
        <ele>315.8</ele>
        <time>2023-12-06T15:41:57Z</time>
      </trkpt>
      <trkpt lat="48.67347" lon="7.13523">
        <ele>316.6</ele>
        <time>2023-12-06T15:42:08Z</time>
      </trkpt>
      <trkpt lat="48.67332" lon="7.13539">
        <ele>317.3</ele>
        <time>2023-12-06T15:42:17Z</time>
      </trkpt>
      <trkpt lat="48.67317" lon="7.13557">
        <ele>317.9</ele>
        <time>2023-12-06T15:42:26Z</time>
      </trkpt>
      <trkpt lat="48.67307" lon="7.13582">
        <ele>318.6</ele>
        <time>2023-12-06T15:42:34Z</time>
      </trkpt>
      <trkpt lat="48.67298" lon="7.13608">
        <ele>319.3</ele>
        <time>2023-12-06T15:42:43Z</time>
      </trkpt>
      <trkpt lat="48.67289" lon="7.13632">
        <ele>320.1</ele>
        <time>2023-12-06T15:42:54Z</time>
      </trkpt>
      <trkpt lat="48.67277" lon="7.13654">
        <ele>320.8</ele>
        <time>2023-12-06T15:43:03Z</time>
      </trkpt>
      <trkpt lat="48.67262" lon="7.13673">
        <ele>321.5</ele>
        <time>2023-12-06T15:43:14Z</time>
      </trkpt>
      <trkpt lat="48.6725" lon="7.13696">
        <ele>322.1</ele>
        <time>2023-12-06T15:43:24Z</time>
      </trkpt>
      <trkpt lat="48.67236" lon="7.13716">
        <ele>322.5</ele>
        <time>2023-12-06T15:43:36Z</time>
      </trkpt>
      <trkpt lat="48.67224" lon="7.13738">
        <ele>322.7</ele>
        <time>2023-12-06T15:43:48Z</time>
      </trkpt>
      <trkpt lat="48.67214" lon="7.13765">
        <ele>322.8</ele>
        <time>2023-12-06T15:43:57Z</time>
      </trkpt>
      <trkpt lat="48.67202" lon="7.1379">
        <ele>322.9</ele>
        <time>2023-12-06T15:44:06Z</time>
      </trkpt>
      <trkpt lat="48.67193" lon="7.13815">
        <ele>323.3</ele>
        <time>2023-12-06T15:44:16Z</time>
      </trkpt>
      <trkpt lat="48.67183" lon="7.13841">
        <ele>323.8</ele>
        <time>2023-12-06T15:44:27Z</time>
      </trkpt>
      <trkpt lat="48.67173" lon="7.13865">
        <ele>324.4</ele>
        <time>2023-12-06T15:44:39Z</time>
      </trkpt>
      <trkpt lat="48.67169" lon="7.13868">
        <ele>324.6</ele>
        <time>2023-12-06T15:44:44Z</time>
      </trkpt>
      <trkpt lat="48.67168" lon="7.13871">
        <ele>324.7</ele>
        <time>2023-12-06T15:44:46Z</time>
      </trkpt>
      <trkpt lat="48.67161" lon="7.13878">
        <ele>325.1</ele>
        <time>2023-12-06T15:44:52Z</time>
      </trkpt>
      <trkpt lat="48.67163" lon="7.13908">
        <ele>326</ele>
        <time>2023-12-06T15:45:01Z</time>
      </trkpt>
      <trkpt lat="48.67162" lon="7.13938">
        <ele>326.7</ele>
        <time>2023-12-06T15:45:10Z</time>
      </trkpt>
      <trkpt lat="48.67158" lon="7.13965">
        <ele>326.4</ele>
        <time>2023-12-06T15:45:18Z</time>
      </trkpt>
      <trkpt lat="48.67153" lon="7.13993">
        <ele>325.1</ele>
        <time>2023-12-06T15:45:28Z</time>
      </trkpt>
      <trkpt lat="48.67148" lon="7.14019">
        <ele>324</ele>
        <time>2023-12-06T15:45:37Z</time>
      </trkpt>
      <trkpt lat="48.67139" lon="7.14045">
        <ele>322.9</ele>
        <time>2023-12-06T15:45:44Z</time>
      </trkpt>
      <trkpt lat="48.67126" lon="7.14066">
        <ele>321.8</ele>
        <time>2023-12-06T15:45:53Z</time>
      </trkpt>
      <trkpt lat="48.67109" lon="7.14081">
        <ele>321</ele>
        <time>2023-12-06T15:46:02Z</time>
      </trkpt>
      <trkpt lat="48.67092" lon="7.1409">
        <ele>320.2</ele>
        <time>2023-12-06T15:46:12Z</time>
      </trkpt>
      <trkpt lat="48.67075" lon="7.14107">
        <ele>319.3</ele>
        <time>2023-12-06T15:46:21Z</time>
      </trkpt>
      <trkpt lat="48.67059" lon="7.14123">
        <ele>318.3</ele>
        <time>2023-12-06T15:46:30Z</time>
      </trkpt>
      <trkpt lat="48.67043" lon="7.14143">
        <ele>317.1</ele>
        <time>2023-12-06T15:46:40Z</time>
      </trkpt>
      <trkpt lat="48.67026" lon="7.14155">
        <ele>316.3</ele>
        <time>2023-12-06T15:46:49Z</time>
      </trkpt>
      <trkpt lat="48.67008" lon="7.14167">
        <ele>315.5</ele>
        <time>2023-12-06T15:46:58Z</time>
      </trkpt>
      <trkpt lat="48.66991" lon="7.14184">
        <ele>314.7</ele>
        <time>2023-12-06T15:47:08Z</time>
      </trkpt>
      <trkpt lat="48.66988" lon="7.14189">
        <ele>314.5</ele>
        <time>2023-12-06T15:47:11Z</time>
      </trkpt>
      <trkpt lat="48.66968" lon="7.1419">
        <ele>313.5</ele>
        <time>2023-12-06T15:47:20Z</time>
      </trkpt>
      <trkpt lat="48.66964" lon="7.14205">
        <ele>312.8</ele>
        <time>2023-12-06T15:47:23Z</time>
      </trkpt>
      <trkpt lat="48.66963" lon="7.14228">
        <ele>311.6</ele>
        <time>2023-12-06T15:47:30Z</time>
      </trkpt>
    </trkseg>
  </trk>
</gpx>